Time,TemperatureF,DewpointF,PressureIn,WindDirection,WindDirectionDegrees,WindSpeedMPH,WindSpeedGustMPH,Humidity,HourlyPrecipIn,Conditions,Clouds,dailyrainin,SolarRadiationWatts/m^2,SoftwareType,DateUTC
2013-08-17 00:02:00,79.2,68.2,30.05,ENE,70,0.0,1.0,69,0.00,,,0.25,0.0,meteohub,2013-08-17 07:02:00,
2013-08-17 00:07:00,79.2,70.2,30.04,ENE,70,0.0,1.0,74,0.00,,,0.00,0.0,meteohub,2013-08-17 07:07:00,
2013-08-17 00:12:00,78.8,69.4,30.04,ENE,70,0.0,1.0,73,0.00,,,0.00,0.0,meteohub,2013-08-17 07:12:00,
2013-08-17 00:17:00,78.4,67.5,30.04,ENE,70,1.0,1.0,69,0.00,,,0.00,0.0,meteohub,2013-08-17 07:17:00,
2013-08-17 00:22:00,78.4,68.7,30.04,ENE,70,1.0,2.0,72,0.00,,,0.00,0.0,meteohub,2013-08-17 07:22:00,
2013-08-17 00:27:00,78.3,66.0,30.04,ENE,70,0.0,2.0,66,0.00,,,0.00,0.0,meteohub,2013-08-17 07:27:00,
2013-08-17 00:32:00,78.3,66.4,30.04,ENE,70,0.0,2.0,67,0.00,,,0.00,0.0,meteohub,2013-08-17 07:32:00,
2013-08-17 00:37:00,78.1,67.5,30.05,ENE,70,1.0,2.0,70,0.00,,,0.00,0.0,meteohub,2013-08-17 07:37:00,
2013-08-17 00:42:00,78.1,66.2,30.05,ENE,70,0.0,2.0,67,0.00,,,0.00,0.0,meteohub,2013-08-17 07:42:00,
2013-08-17 00:47:00,77.9,65.7,30.05,ENE,70,0.0,2.0,66,0.00,,,0.00,0.0,meteohub,2013-08-17 07:47:00,
2013-08-17 00:52:00,77.9,65.7,30.04,ENE,70,0.0,2.0,66,0.00,,,0.00,0.0,meteohub,2013-08-17 07:52:00,
2013-08-17 00:57:00,77.9,66.6,30.04,ENE,70,0.0,1.0,68,0.00,,,0.00,0.0,meteohub,2013-08-17 07:57:00,
2013-08-17 01:02:00,77.7,66.7,30.04,ENE,70,0.0,1.0,69,0.00,,,0.00,0.0,meteohub,2013-08-17 08:02:00,
2013-08-17 01:07:00,77.5,64.8,30.04,ENE,70,0.0,1.0,65,0.00,,,0.00,0.0,meteohub,2013-08-17 08:07:00,
2013-08-17 01:12:00,77.5,65.3,30.04,ENE,70,0.0,1.0,66,0.00,,,0.00,0.0,meteohub,2013-08-17 08:12:00,
2013-08-17 01:17:00,77.5,65.7,30.04,ENE,70,0.0,1.0,67,0.00,,,0.00,0.0,meteohub,2013-08-17 08:17:00,
2013-08-17 01:22:00,77.4,65.5,30.04,ENE,70,0.0,1.0,67,0.00,,,0.00,0.0,meteohub,2013-08-17 08:22:00,
2013-08-17 01:27:00,77.2,65.8,30.04,ENE,70,0.0,1.0,68,0.00,,,0.00,0.0,meteohub,2013-08-17 08:27:00,
2013-08-17 01:32:00,77.2,66.2,30.04,ENE,70,0.0,0.0,69,0.00,,,0.00,0.0,meteohub,2013-08-17 08:32:00,
2013-08-17 01:37:00,77.0,67.6,30.04,ENE,70,0.0,0.0,73,0.00,,,0.00,0.0,meteohub,2013-08-17 08:37:00,
2013-08-17 01:42:00,76.8,67.8,30.04,ENE,70,0.0,0.0,74,0.00,,,0.00,0.0,meteohub,2013-08-17 08:42:00,
2013-08-17 01:47:00,76.6,68.2,30.04,ENE,70,1.0,0.0,75,0.00,,,0.00,0.0,meteohub,2013-08-17 08:47:00,
2013-08-17 01:52:00,76.3,66.9,30.03,ENE,70,1.0,1.0,73,0.00,,,0.00,0.0,meteohub,2013-08-17 08:52:00,
2013-08-17 01:57:00,76.5,66.0,30.03,ENE,70,1.0,1.0,70,0.00,,,0.00,0.0,meteohub,2013-08-17 08:57:00,
2013-08-17 02:02:00,76.8,64.9,30.03,ENE,70,1.0,2.0,67,0.00,,,0.00,0.0,meteohub,2013-08-17 09:02:00,
2013-08-17 02:07:00,77.4,64.8,30.03,ENE,70,1.0,2.0,65,0.00,,,0.00,0.0,meteohub,2013-08-17 09:07:00,
2013-08-17 02:12:00,77.5,64.4,30.03,ENE,70,1.0,2.0,64,0.00,,,0.00,0.0,meteohub,2013-08-17 09:12:00,
2013-08-17 02:17:00,77.5,63.0,30.03,ENE,70,0.0,2.0,61,0.00,,,0.00,0.0,meteohub,2013-08-17 09:17:00,
2013-08-17 02:22:00,77.5,66.6,30.03,ENE,70,0.0,2.0,69,0.00,,,0.00,0.0,meteohub,2013-08-17 09:22:00,
2013-08-17 02:27:00,77.4,66.7,30.03,ENE,70,0.0,2.0,70,0.00,,,0.00,0.0,meteohub,2013-08-17 09:27:00,
2013-08-17 02:32:00,77.0,66.4,30.03,ENE,70,0.0,2.0,70,0.00,,,0.00,0.0,meteohub,2013-08-17 09:32:00,
2013-08-17 02:37:00,76.6,66.2,30.03,ENE,70,0.0,2.0,70,0.00,,,0.00,0.0,meteohub,2013-08-17 09:37:00,
2013-08-17 02:42:00,76.5,67.1,30.03,ENE,70,1.0,1.0,73,0.00,,,0.00,0.0,meteohub,2013-08-17 09:42:00,
2013-08-17 02:47:00,76.1,65.1,30.02,ENE,70,1.0,2.0,69,0.00,,,0.00,0.0,meteohub,2013-08-17 09:47:00,
2013-08-17 02:52:00,75.9,64.6,30.02,ENE,70,0.0,2.0,68,0.00,,,0.00,0.0,meteohub,2013-08-17 09:52:00,
2013-08-17 02:57:00,75.9,65.8,30.02,ENE,70,0.0,2.0,71,0.00,,,0.00,0.0,meteohub,2013-08-17 09:57:00,
2013-08-17 03:02:00,75.7,66.4,30.02,ENE,70,0.0,2.0,73,0.00,,,0.00,0.0,meteohub,2013-08-17 10:02:00,
2013-08-17 03:07:00,75.6,66.7,30.02,ENE,70,0.0,1.0,74,0.00,,,0.00,0.0,meteohub,2013-08-17 10:07:00,
2013-08-17 03:12:00,75.4,64.9,30.02,ENE,70,0.0,1.0,70,0.00,,,0.00,0.0,meteohub,2013-08-17 10:12:00,
2013-08-17 03:17:00,75.4,66.2,30.02,ENE,70,0.0,1.0,73,0.00,,,0.00,0.0,meteohub,2013-08-17 10:17:00,
2013-08-17 03:22:00,75.2,66.0,30.02,ENE,70,0.0,1.0,73,0.00,,,0.00,0.0,meteohub,2013-08-17 10:22:00,
2013-08-17 03:27:00,75.0,64.2,30.02,ENE,70,0.0,1.0,69,0.00,,,0.00,0.0,meteohub,2013-08-17 10:27:00,
2013-08-17 03:32:00,74.8,64.0,30.02,ENE,70,0.0,1.0,69,0.00,,,0.00,0.0,meteohub,2013-08-17 10:32:00,
2013-08-17 03:37:00,75.0,66.2,30.02,ENE,70,0.0,2.0,74,0.00,,,0.00,0.0,meteohub,2013-08-17 10:37:00,
2013-08-17 03:42:00,74.8,64.0,30.02,ENE,70,0.0,2.0,69,0.00,,,0.00,0.0,meteohub,2013-08-17 10:42:00,
2013-08-17 03:47:00,74.7,64.2,30.02,ENE,70,1.0,2.0,70,0.00,,,0.00,0.0,meteohub,2013-08-17 10:47:00,
2013-08-17 03:52:00,74.7,63.9,30.02,ENE,70,0.0,2.0,69,0.00,,,0.00,0.0,meteohub,2013-08-17 10:52:00,
2013-08-17 03:57:00,74.8,64.8,30.02,ENE,70,0.0,2.0,71,0.00,,,0.00,0.0,meteohub,2013-08-17 10:57:00,
2013-08-17 04:02:00,74.7,66.6,30.02,ENE,70,0.0,2.0,76,0.00,,,0.00,0.0,meteohub,2013-08-17 11:02:00,
2013-08-17 04:07:00,74.7,66.6,30.02,ENE,70,1.0,1.0,76,0.00,,,0.00,0.0,meteohub,2013-08-17 11:07:00,
2013-08-17 04:12:00,74.3,65.1,30.02,ENE,70,1.0,1.0,73,0.00,,,0.00,0.0,meteohub,2013-08-17 11:12:00,
2013-08-17 04:17:00,74.3,65.5,30.02,ENE,70,2.0,2.0,74,0.00,,,0.00,0.0,meteohub,2013-08-17 11:17:00,
2013-08-17 04:22:00,74.5,64.9,30.02,ENE,70,1.0,2.0,72,0.00,,,0.00,0.0,meteohub,2013-08-17 11:22:00,
2013-08-17 04:27:00,74.8,64.4,30.02,ENE,70,0.0,2.0,70,0.00,,,0.00,0.0,meteohub,2013-08-17 11:27:00,
2013-08-17 04:32:00,74.8,63.5,30.02,ENE,70,1.0,2.0,68,0.00,,,0.00,0.0,meteohub,2013-08-17 11:32:00,
2013-08-17 04:37:00,75.2,63.5,30.03,ENE,70,0.0,2.0,67,0.00,,,0.00,0.0,meteohub,2013-08-17 11:37:00,
2013-08-17 04:42:00,75.2,64.4,30.03,SW,232,2.0,2.0,69,0.00,,,0.00,0.0,meteohub,2013-08-17 11:42:00,
2013-08-17 04:47:00,75.0,63.7,30.03,SW,232,1.0,4.0,68,0.00,,,0.00,0.0,meteohub,2013-08-17 11:47:00,
2013-08-17 04:52:00,74.8,64.4,30.03,SW,232,0.0,4.0,70,0.00,,,0.00,0.0,meteohub,2013-08-17 11:52:00,
2013-08-17 04:57:00,74.7,63.9,30.03,SW,232,1.0,4.0,69,0.00,,,0.00,0.0,meteohub,2013-08-17 11:57:00,
2013-08-17 05:02:00,74.5,64.0,30.04,SW,232,0.0,2.0,70,0.00,,,0.00,0.0,meteohub,2013-08-17 12:02:00,
2013-08-17 05:07:00,74.3,63.1,30.04,SW,232,1.0,2.0,68,0.00,,,0.00,0.0,meteohub,2013-08-17 12:07:00,
2013-08-17 05:12:00,74.5,62.4,30.04,WSW,242,1.0,3.0,66,0.00,,,0.00,0.0,meteohub,2013-08-17 12:12:00,
2013-08-17 05:17:00,74.7,63.0,30.04,WSW,242,1.0,3.0,67,0.00,,,0.00,0.0,meteohub,2013-08-17 12:17:00,
2013-08-17 05:22:00,74.8,62.2,30.04,WSW,242,0.0,3.0,65,0.00,,,0.00,0.0,meteohub,2013-08-17 12:22:00,
2013-08-17 05:27:00,74.8,63.1,30.04,WSW,242,0.0,2.0,67,0.00,,,0.00,0.0,meteohub,2013-08-17 12:27:00,
2013-08-17 05:32:00,74.8,63.5,30.04,WSW,242,0.0,2.0,68,0.00,,,0.00,0.0,meteohub,2013-08-17 12:32:00,
2013-08-17 05:37:00,74.5,64.0,30.04,WSW,242,1.0,1.0,70,0.00,,,0.00,0.0,meteohub,2013-08-17 12:37:00,
2013-08-17 05:42:00,74.1,65.3,30.04,WSW,242,1.0,2.0,74,0.00,,,0.00,0.0,meteohub,2013-08-17 12:42:00,
2013-08-17 05:47:00,73.8,64.6,30.05,WSW,242,0.0,2.0,73,0.00,,,0.00,5.0,meteohub,2013-08-17 12:47:00,
2013-08-17 05:52:00,73.4,64.2,30.05,WSW,242,0.0,2.0,73,0.00,,,0.00,5.0,meteohub,2013-08-17 12:52:00,
2013-08-17 05:57:00,73.2,64.8,30.05,WSW,242,1.0,2.0,75,0.00,,,0.00,9.0,meteohub,2013-08-17 12:57:00,
2013-08-17 06:02:00,72.9,64.0,30.05,WSW,242,0.0,1.0,74,0.00,,,0.00,12.0,meteohub,2013-08-17 13:02:00,
2013-08-17 06:07:00,72.9,63.7,30.05,WSW,242,0.0,1.0,73,0.00,,,0.00,16.0,meteohub,2013-08-17 13:07:00,
2013-08-17 06:12:00,72.9,63.7,30.05,WSW,242,0.0,1.0,73,0.00,,,0.00,19.0,meteohub,2013-08-17 13:12:00,
2013-08-17 06:17:00,73.0,63.9,30.05,WSW,242,0.0,1.0,73,0.00,,,0.00,25.0,meteohub,2013-08-17 13:17:00,
2013-08-17 06:22:00,73.0,65.8,30.06,WSW,242,0.0,1.0,78,0.00,,,0.00,26.0,meteohub,2013-08-17 13:22:00,
2013-08-17 06:27:00,73.4,66.2,30.06,WSW,242,0.0,1.0,78,0.00,,,0.00,44.0,meteohub,2013-08-17 13:27:00,
2013-08-17 06:32:00,73.6,64.4,30.06,WSW,242,0.0,1.0,73,0.00,,,0.00,62.0,meteohub,2013-08-17 13:32:00,
2013-08-17 06:37:00,74.3,63.9,30.06,WSW,242,0.0,1.0,70,0.00,,,0.00,88.0,meteohub,2013-08-17 13:37:00,
2013-08-17 06:42:00,75.2,62.6,30.06,WSW,242,0.0,1.0,65,0.00,,,0.00,109.0,meteohub,2013-08-17 13:42:00,
2013-08-17 06:47:00,76.5,64.2,30.05,WSW,242,1.0,1.0,66,0.00,,,0.00,130.0,meteohub,2013-08-17 13:47:00,
2013-08-17 06:52:00,77.7,64.9,30.05,WSW,242,0.0,1.0,65,0.00,,,0.00,146.0,meteohub,2013-08-17 13:52:00,
2013-08-17 06:57:00,78.8,63.3,30.05,WSW,242,0.0,1.0,59,0.00,,,0.00,167.0,meteohub,2013-08-17 13:57:00,
2013-08-17 07:02:00,79.7,63.1,30.05,WSW,242,2.0,2.0,57,0.00,,,0.00,185.0,meteohub,2013-08-17 14:02:00,
2013-08-17 07:07:00,80.4,64.2,30.05,WSW,242,1.0,2.0,58,0.00,,,0.00,202.0,meteohub,2013-08-17 14:07:00,
2013-08-17 07:12:00,80.8,64.6,30.05,WSW,242,1.0,3.0,58,0.00,,,0.00,220.0,meteohub,2013-08-17 14:12:00,
2013-08-17 07:17:00,81.1,63.0,30.06,WSW,242,0.0,3.0,54,0.00,,,0.00,237.0,meteohub,2013-08-17 14:17:00,
2013-08-17 07:22:00,81.7,63.0,30.06,WSW,242,1.0,3.0,53,0.00,,,0.00,255.0,meteohub,2013-08-17 14:22:00,
2013-08-17 07:27:00,82.0,62.1,30.06,WSW,242,0.0,2.0,51,0.00,,,0.00,269.0,meteohub,2013-08-17 14:27:00,
2013-08-17 07:32:00,82.6,61.5,30.06,WSW,242,0.0,2.0,49,0.00,,,0.00,287.0,meteohub,2013-08-17 14:32:00,
2013-08-17 07:37:00,82.9,62.4,30.06,WSW,242,1.0,1.0,50,0.00,,,0.00,306.0,meteohub,2013-08-17 14:37:00,
2013-08-17 07:42:00,83.1,63.1,30.06,WSW,242,3.0,3.0,51,0.00,,,0.00,323.0,meteohub,2013-08-17 14:42:00,
2013-08-17 07:47:00,83.3,63.3,30.06,WSW,242,1.0,4.0,51,0.00,,,0.00,341.0,meteohub,2013-08-17 14:47:00,
2013-08-17 07:52:00,83.5,61.7,30.07,WSW,244,1.0,4.0,48,0.00,,,0.00,359.0,meteohub,2013-08-17 14:52:00,
2013-08-17 07:57:00,83.8,62.6,30.07,NW,304,2.0,4.0,49,0.00,,,0.00,373.0,meteohub,2013-08-17 14:57:00,
2013-08-17 08:02:00,84.2,63.0,30.07,NW,304,0.0,4.0,49,0.00,,,0.00,390.0,meteohub,2013-08-17 15:02:00,
2013-08-17 08:07:00,84.6,62.8,30.07,WNW,294,2.0,3.0,48,0.00,,,0.00,410.0,meteohub,2013-08-17 15:07:00,
2013-08-17 08:12:00,84.9,62.4,30.07,WNW,294,1.0,3.0,47,0.00,,,0.00,427.0,meteohub,2013-08-17 15:12:00,
2013-08-17 08:17:00,85.3,61.5,30.06,WNW,290,0.0,3.0,45,0.00,,,0.00,446.0,meteohub,2013-08-17 15:17:00,
2013-08-17 08:22:00,85.6,61.9,30.06,WNW,290,2.0,3.0,45,0.00,,,0.00,464.0,meteohub,2013-08-17 15:22:00,
2013-08-17 08:27:00,85.8,62.6,30.06,West,262,1.0,2.0,46,0.00,,,0.00,483.0,meteohub,2013-08-17 15:27:00,
2013-08-17 08:32:00,86.2,62.4,30.07,West,261,0.0,3.0,45,0.00,,,0.00,499.0,meteohub,2013-08-17 15:32:00,
2013-08-17 08:37:00,86.5,60.8,30.06,West,261,1.0,3.0,42,0.00,,,0.00,515.0,meteohub,2013-08-17 15:37:00,
2013-08-17 08:42:00,87.1,62.6,30.06,West,261,0.0,3.0,44,0.00,,,0.00,529.0,meteohub,2013-08-17 15:42:00,
2013-08-17 08:47:00,88.0,62.6,30.06,West,263,1.0,2.0,43,0.00,,,0.00,545.0,meteohub,2013-08-17 15:47:00,
2013-08-17 08:53:00,88.3,62.4,30.06,SW,224,2.0,3.0,42,0.00,,,0.00,559.0,meteohub,2013-08-17 15:53:00,
2013-08-17 08:58:00,88.5,62.4,30.06,SW,219,3.0,3.0,42,0.00,,,0.00,575.0,meteohub,2013-08-17 15:58:00,
2013-08-17 09:03:00,88.9,61.5,30.06,SW,226,2.0,4.0,40,0.00,,,0.00,591.0,meteohub,2013-08-17 16:03:00,
2013-08-17 09:08:00,89.1,61.5,30.06,SW,227,1.0,4.0,40,0.00,,,0.00,608.0,meteohub,2013-08-17 16:08:00,
2013-08-17 09:13:00,89.4,62.6,30.06,SSW,196,1.0,4.0,41,0.00,,,0.00,622.0,meteohub,2013-08-17 16:13:00,
2013-08-17 09:18:00,89.8,61.5,30.06,SSW,196,1.0,3.0,39,0.00,,,0.00,638.0,meteohub,2013-08-17 16:18:00,
2013-08-17 09:23:00,90.3,61.3,30.06,SW,215,1.0,3.0,38,0.00,,,0.00,650.0,meteohub,2013-08-17 16:23:00,
2013-08-17 09:28:00,90.7,61.5,30.06,SW,232,0.0,3.0,38,0.00,,,0.00,663.0,meteohub,2013-08-17 16:28:00,
2013-08-17 09:33:00,91.0,60.4,30.06,West,261,1.0,3.0,36,0.00,,,0.00,675.0,meteohub,2013-08-17 16:33:00,
2013-08-17 09:38:00,91.4,59.0,30.06,NW,308,2.0,4.0,34,0.00,,,0.00,696.0,meteohub,2013-08-17 16:38:00,
2013-08-17 09:43:00,91.9,60.4,30.06,WNW,289,3.0,4.0,35,0.00,,,0.00,708.0,meteohub,2013-08-17 16:43:00,
2013-08-17 09:48:00,92.3,60.6,30.06,WNW,292,1.0,4.0,35,0.00,,,0.00,722.0,meteohub,2013-08-17 16:48:00,
2013-08-17 09:53:00,92.8,59.5,30.06,West,273,2.0,4.0,33,0.00,,,0.00,737.0,meteohub,2013-08-17 16:53:00,
2013-08-17 09:58:00,93.2,59.9,30.06,SW,226,3.0,5.0,33,0.00,,,0.00,751.0,meteohub,2013-08-17 16:58:00,
2013-08-17 10:03:00,93.6,60.1,30.05,WSW,242,2.0,5.0,33,0.00,,,0.00,765.0,meteohub,2013-08-17 17:03:00,
2013-08-17 10:08:00,93.7,58.5,30.05,WNW,302,2.0,5.0,31,0.00,,,0.00,775.0,meteohub,2013-08-17 17:08:00,
2013-08-17 10:13:00,94.5,58.3,30.05,West,266,4.0,5.0,30,0.00,,,0.00,786.0,meteohub,2013-08-17 17:13:00,
2013-08-17 10:18:00,94.6,59.4,30.05,SW,231,2.0,5.0,31,0.00,,,0.00,795.0,meteohub,2013-08-17 17:18:00,
2013-08-17 10:23:00,95.2,58.8,30.05,NW,311,3.0,5.0,30,0.00,,,0.00,807.0,meteohub,2013-08-17 17:23:00,
2013-08-17 10:28:00,95.5,57.2,30.04,SW,221,1.0,5.0,28,0.00,,,0.00,817.0,meteohub,2013-08-17 17:28:00,
2013-08-17 10:33:00,95.9,57.6,30.04,WNW,282,1.0,5.0,28,0.00,,,0.00,828.0,meteohub,2013-08-17 17:33:00,
2013-08-17 10:38:00,96.4,57.9,30.04,NW,308,2.0,5.0,28,0.00,,,0.00,838.0,meteohub,2013-08-17 17:38:00,
2013-08-17 10:43:00,97.0,58.5,30.04,West,268,0.0,5.0,28,0.00,,,0.00,849.0,meteohub,2013-08-17 17:43:00,
2013-08-17 10:48:00,97.3,56.7,30.04,West,271,3.0,4.0,26,0.00,,,0.00,856.0,meteohub,2013-08-17 17:48:00,
2013-08-17 10:53:00,97.7,58.1,30.03,SW,215,1.0,5.0,27,0.00,,,0.00,868.0,meteohub,2013-08-17 17:53:00,
2013-08-17 10:58:00,98.1,57.4,30.03,SSW,209,3.0,5.0,26,0.00,,,0.00,870.0,meteohub,2013-08-17 17:58:00,
2013-08-17 11:03:00,98.2,56.3,30.03,SW,225,3.0,5.0,25,0.00,,,0.00,882.0,meteohub,2013-08-17 18:03:00,
2013-08-17 11:08:00,98.4,55.4,30.02,NW,307,1.0,7.0,24,0.00,,,0.00,889.0,meteohub,2013-08-17 18:08:00,
2013-08-17 11:13:00,99.0,57.0,30.02,SSW,207,3.0,7.0,25,0.00,,,0.00,898.0,meteohub,2013-08-17 18:13:00,
2013-08-17 11:18:00,99.5,54.0,30.02,SSE,150,2.0,6.0,22,0.00,,,0.00,904.0,meteohub,2013-08-17 18:18:00,
2013-08-17 11:23:00,100.4,57.0,30.02,WNW,302,2.0,5.0,24,0.00,,,0.00,911.0,meteohub,2013-08-17 18:23:00,
2013-08-17 11:28:00,100.8,57.4,30.01,NW,321,2.0,5.0,24,0.00,,,0.00,916.0,meteohub,2013-08-17 18:28:00,
2013-08-17 11:33:00,100.9,53.8,30.01,West,266,4.0,5.0,21,0.00,,,0.00,925.0,meteohub,2013-08-17 18:33:00,
2013-08-17 11:38:00,100.9,52.5,30.01,West,265,5.0,6.0,20,0.00,,,0.00,926.0,meteohub,2013-08-17 18:38:00,
2013-08-17 11:43:00,100.2,52.0,30.01,West,271,2.0,8.0,20,0.00,,,0.00,933.0,meteohub,2013-08-17 18:43:00,
2013-08-17 11:48:00,100.9,53.8,30.01,West,265,1.0,8.0,21,0.00,,,0.00,939.0,meteohub,2013-08-17 18:48:00,
2013-08-17 11:54:00,101.5,51.6,30.00,North,355,1.0,8.0,19,0.00,,,0.00,939.0,meteohub,2013-08-17 18:54:00,
2013-08-17 11:59:00,102.2,53.6,30.00,SW,236,3.0,6.0,20,0.00,,,0.00,947.0,meteohub,2013-08-17 18:59:00,
2013-08-17 12:04:00,102.4,52.3,30.00,WSW,257,2.0,6.0,19,0.00,,,0.00,949.0,meteohub,2013-08-17 19:04:00,
2013-08-17 12:09:00,102.0,50.5,29.99,SSW,204,3.0,8.0,18,0.00,,,0.00,951.0,meteohub,2013-08-17 19:09:00,
2013-08-17 12:14:00,101.8,51.8,29.99,West,261,2.0,8.0,19,0.00,,,0.00,953.0,meteohub,2013-08-17 19:14:00,
2013-08-17 12:19:00,102.0,52.0,29.99,West,265,3.0,8.0,19,0.00,,,0.00,958.0,meteohub,2013-08-17 19:19:00,
2013-08-17 12:24:00,101.8,53.2,29.99,SSE,151,3.0,8.0,20,0.00,,,0.00,962.0,meteohub,2013-08-17 19:24:00,
2013-08-17 12:29:00,102.0,53.4,29.98,West,263,3.0,6.0,20,0.00,,,0.00,967.0,meteohub,2013-08-17 19:29:00,
2013-08-17 12:34:00,102.9,52.7,29.98,SW,217,4.0,6.0,19,0.00,,,0.00,970.0,meteohub,2013-08-17 19:34:00,
2013-08-17 12:39:00,103.1,51.4,29.97,SW,228,4.0,6.0,18,0.00,,,0.00,969.0,meteohub,2013-08-17 19:39:00,
2013-08-17 12:44:00,103.3,51.6,29.97,West,268,11.0,11.0,18,0.00,,,0.00,970.0,meteohub,2013-08-17 19:44:00,
2013-08-17 12:49:00,103.5,53.2,29.97,SW,225,5.0,9.0,19,0.00,,,0.00,967.0,meteohub,2013-08-17 19:49:00,
2013-08-17 12:54:00,103.6,50.4,29.97,South,178,2.0,11.0,17,0.00,,,0.00,974.0,meteohub,2013-08-17 19:54:00,
2013-08-17 12:59:00,103.8,50.4,29.97,SSW,197,3.0,11.0,17,0.00,,,0.00,977.0,meteohub,2013-08-17 19:59:00,
2013-08-17 13:04:00,103.5,50.2,29.96,WSW,248,4.0,9.0,17,0.00,,,0.00,969.0,meteohub,2013-08-17 20:04:00,
2013-08-17 13:09:00,103.5,51.6,29.96,NNW,333,7.0,9.0,18,0.00,,,0.00,972.0,meteohub,2013-08-17 20:09:00,
2013-08-17 13:14:00,104.2,50.7,29.96,North,5,1.0,9.0,17,0.00,,,0.00,963.0,meteohub,2013-08-17 20:14:00,
2013-08-17 13:19:00,104.7,51.1,29.95,ENE,70,2.0,9.0,17,0.00,,,0.00,974.0,meteohub,2013-08-17 20:19:00,
2013-08-17 13:24:00,105.1,49.8,29.95,North,5,2.0,8.0,16,0.00,,,0.00,977.0,meteohub,2013-08-17 20:24:00,
2013-08-17 13:29:00,105.1,51.4,29.95,North,11,1.0,8.0,17,0.00,,,0.00,967.0,meteohub,2013-08-17 20:29:00,
2013-08-17 13:34:00,105.1,49.8,29.94,NE,40,1.0,8.0,16,0.00,,,0.00,979.0,meteohub,2013-08-17 20:34:00,
2013-08-17 13:39:00,105.3,51.6,29.94,SW,231,7.0,8.0,17,0.00,,,0.00,1011.0,meteohub,2013-08-17 20:39:00,
2013-08-17 13:44:00,105.4,50.0,29.94,SSW,204,2.0,9.0,16,0.00,,,0.00,1004.0,meteohub,2013-08-17 20:44:00,
2013-08-17 13:49:00,106.0,48.7,29.94,SW,217,8.0,9.0,15,0.00,,,0.00,1028.0,meteohub,2013-08-17 20:49:00,
2013-08-17 13:54:00,106.3,49.1,29.94,SSW,212,1.0,9.0,15,0.00,,,0.00,1051.0,meteohub,2013-08-17 20:54:00,
2013-08-17 13:59:00,106.0,46.9,29.94,West,260,2.0,9.0,14,0.00,,,0.00,1065.0,meteohub,2013-08-17 20:59:00,
2013-08-17 14:04:00,105.1,48.0,29.93,WSW,250,2.0,9.0,15,0.00,,,0.00,251.0,meteohub,2013-08-17 21:04:00,
2013-08-17 14:09:00,104.9,49.6,29.93,WNW,292,2.0,8.0,16,0.00,,,0.00,272.0,meteohub,2013-08-17 21:09:00,
2013-08-17 14:14:00,104.5,47.7,29.93,WNW,286,2.0,8.0,15,0.00,,,0.00,227.0,meteohub,2013-08-17 21:14:00,
2013-08-17 14:19:00,104.5,49.3,29.92,WNW,289,1.0,6.0,16,0.00,,,0.00,1016.0,meteohub,2013-08-17 21:19:00,
2013-08-17 14:24:00,105.3,48.2,29.92,WNW,290,0.0,6.0,15,0.00,,,0.00,1018.0,meteohub,2013-08-17 21:24:00,
2013-08-17 14:30:00,106.0,48.7,29.92,SE,128,2.0,6.0,15,0.00,,,0.00,998.0,meteohub,2013-08-17 21:30:00,
2013-08-17 14:35:00,106.3,47.3,29.91,North,0,4.0,5.0,14,0.00,,,0.00,990.0,meteohub,2013-08-17 21:35:00,
2013-08-17 14:40:00,106.7,49.3,29.91,South,184,2.0,5.0,15,0.00,,,0.00,236.0,meteohub,2013-08-17 21:40:00,
2013-08-17 14:45:00,106.0,48.7,29.91,WNW,286,4.0,9.0,15,0.00,,,0.00,258.0,meteohub,2013-08-17 21:45:00,
2013-08-17 14:50:00,105.8,46.8,29.91,South,188,1.0,9.0,14,0.00,,,0.00,904.0,meteohub,2013-08-17 21:50:00,
2013-08-17 14:55:00,105.6,50.2,29.91,SW,217,2.0,14.0,16,0.00,,,0.00,232.0,meteohub,2013-08-17 21:55:00,
2013-08-17 15:00:00,106.2,48.9,29.90,SSW,205,7.0,14.0,15,0.00,,,0.00,872.0,meteohub,2013-08-17 22:00:00,
2013-08-17 15:05:00,107.1,51.4,29.90,SW,219,9.0,14.0,16,0.00,,,0.00,858.0,meteohub,2013-08-17 22:05:00,
2013-08-17 15:10:00,106.3,49.1,29.90,SW,229,6.0,9.0,15,0.00,,,0.00,244.0,meteohub,2013-08-17 22:10:00,
2013-08-17 15:15:00,105.8,50.4,29.90,South,186,7.0,10.0,16,0.00,,,0.00,846.0,meteohub,2013-08-17 22:15:00,
2013-08-17 15:20:00,105.6,48.6,29.90,South,180,6.0,10.0,15,0.00,,,0.00,830.0,meteohub,2013-08-17 22:20:00,
2013-08-17 15:26:00,105.6,48.6,29.90,South,188,5.0,10.0,15,0.00,,,0.00,782.0,meteohub,2013-08-17 22:26:00,
2013-08-17 15:31:00,105.6,48.6,29.89,SW,221,3.0,9.0,15,0.00,,,0.00,445.0,meteohub,2013-08-17 22:31:00,
2013-08-17 15:36:00,106.2,48.9,29.89,West,274,2.0,9.0,15,0.00,,,0.00,745.0,meteohub,2013-08-17 22:36:00,
2013-08-17 15:41:00,106.2,48.9,29.89,WSW,251,3.0,8.0,15,0.00,,,0.00,726.0,meteohub,2013-08-17 22:41:00,
2013-08-17 15:46:00,106.2,48.9,29.89,WNW,290,2.0,10.0,15,0.00,,,0.00,721.0,meteohub,2013-08-17 22:46:00,
2013-08-17 15:51:00,106.3,49.1,29.89,SW,227,5.0,10.0,15,0.00,,,0.00,717.0,meteohub,2013-08-17 22:51:00,
2013-08-17 15:56:00,106.3,49.1,29.89,SSW,193,3.0,8.0,15,0.00,,,0.00,610.0,meteohub,2013-08-17 22:56:00,
2013-08-17 16:01:00,106.3,50.7,29.88,NW,306,2.0,8.0,16,0.00,,,0.00,287.0,meteohub,2013-08-17 23:01:00,
2013-08-17 16:06:00,106.0,50.5,29.89,WSW,257,3.0,8.0,16,0.00,,,0.00,619.0,meteohub,2013-08-17 23:06:00,
2013-08-17 16:11:00,105.3,50.0,29.89,SW,234,5.0,9.0,16,0.00,,,0.00,213.0,meteohub,2013-08-17 23:11:00,
2013-08-17 16:16:00,104.5,49.3,29.88,SSW,212,3.0,11.0,16,0.00,,,0.00,311.0,meteohub,2013-08-17 23:16:00,
2013-08-17 16:21:00,104.9,49.6,29.88,SSW,200,6.0,14.0,16,0.00,,,0.00,410.0,meteohub,2013-08-17 23:21:00,
2013-08-17 16:26:00,105.1,49.8,29.88,SSW,209,7.0,14.0,16,0.00,,,0.00,599.0,meteohub,2013-08-17 23:26:00,
2013-08-17 16:31:00,105.4,50.0,29.88,WSW,246,5.0,12.0,16,0.00,,,0.00,636.0,meteohub,2013-08-17 23:31:00,
2013-08-17 16:36:00,105.3,50.0,29.88,SSW,202,5.0,12.0,16,0.00,,,0.00,332.0,meteohub,2013-08-17 23:36:00,
2013-08-17 16:41:00,103.8,50.4,29.88,SW,229,6.0,11.0,17,0.00,,,0.00,204.0,meteohub,2013-08-17 23:41:00,
2013-08-17 16:46:00,102.4,50.9,29.88,SSW,201,3.0,12.0,18,0.00,,,0.00,165.0,meteohub,2013-08-17 23:46:00,
2013-08-17 16:51:00,101.5,48.6,29.88,SSW,209,5.0,12.0,17,0.00,,,0.00,135.0,meteohub,2013-08-17 23:51:00,
2013-08-17 16:56:00,100.8,49.5,29.88,SW,214,4.0,12.0,18,0.00,,,0.00,125.0,meteohub,2013-08-17 23:56:00,
2013-08-17 17:01:00,100.6,47.8,29.88,SW,221,5.0,12.0,17,0.00,,,0.00,127.0,meteohub,2013-08-18 00:01:00,
2013-08-17 17:06:00,100.2,49.1,29.89,WSW,238,2.0,11.0,18,0.00,,,0.00,137.0,meteohub,2013-08-18 00:06:00,
2013-08-17 17:11:00,100.0,48.9,29.89,WSW,245,1.0,11.0,18,0.00,,,0.00,265.0,meteohub,2013-08-18 00:11:00,
2013-08-17 17:16:00,100.8,49.5,29.88,WSW,252,5.0,11.0,18,0.00,,,0.00,422.0,meteohub,2013-08-18 00:16:00,
2013-08-17 17:21:00,101.7,48.7,29.89,NW,309,4.0,9.0,17,0.00,,,0.00,132.0,meteohub,2013-08-18 00:21:00,
2013-08-17 17:26:00,100.2,53.2,29.89,NNE,19,8.0,9.0,21,0.00,,,0.00,111.0,meteohub,2013-08-18 00:26:00,
2013-08-17 17:31:00,98.4,51.8,29.88,NNE,19,6.0,15.0,21,0.00,,,0.00,98.0,meteohub,2013-08-18 00:31:00,
2013-08-17 17:36:00,98.2,51.6,29.88,North,5,2.0,15.0,21,0.00,,,0.00,79.0,meteohub,2013-08-18 00:36:00,
2013-08-17 17:41:00,98.2,51.6,29.88,NE,35,5.0,15.0,21,0.00,,,0.00,63.0,meteohub,2013-08-18 00:41:00,
2013-08-17 17:46:00,98.1,51.4,29.88,NNW,346,1.0,10.0,21,0.00,,,0.00,47.0,meteohub,2013-08-18 00:46:00,
2013-08-17 17:51:00,97.9,51.3,29.88,NNW,336,2.0,6.0,21,0.00,,,0.00,42.0,meteohub,2013-08-18 00:51:00,
2013-08-17 17:56:00,97.9,51.3,29.89,NNE,18,2.0,7.0,21,0.00,,,0.00,44.0,meteohub,2013-08-18 00:56:00,
2013-08-17 18:01:00,97.7,51.1,29.88,NNE,18,1.0,7.0,21,0.00,,,0.00,40.0,meteohub,2013-08-18 01:01:00,
2013-08-17 18:07:00,97.7,51.1,29.89,NNE,22,0.0,7.0,21,0.00,,,0.00,37.0,meteohub,2013-08-18 01:07:00,
2013-08-17 18:12:00,97.7,51.1,29.89,NNE,22,0.0,2.0,21,0.00,,,0.00,33.0,meteohub,2013-08-18 01:12:00,
2013-08-17 18:17:00,97.5,53.4,29.89,NNE,22,1.0,2.0,23,0.00,,,0.00,30.0,meteohub,2013-08-18 01:17:00,
2013-08-17 18:22:00,97.3,52.2,29.89,NNE,22,0.0,2.0,22,0.00,,,0.00,26.0,meteohub,2013-08-18 01:22:00,
2013-08-17 18:27:00,97.2,54.3,29.89,NNE,22,1.0,2.0,24,0.00,,,0.00,21.0,meteohub,2013-08-18 01:27:00,
2013-08-17 18:32:00,96.8,52.9,29.90,NNE,22,1.0,2.0,23,0.00,,,0.00,19.0,meteohub,2013-08-18 01:32:00,
2013-08-17 18:37:00,96.4,54.9,29.90,North,5,2.0,2.0,25,0.00,,,0.00,16.0,meteohub,2013-08-18 01:37:00,
2013-08-17 18:42:00,96.1,53.4,29.90,SW,217,1.0,3.0,24,0.00,,,0.00,16.0,meteohub,2013-08-18 01:42:00,
2013-08-17 18:47:00,95.7,53.2,29.90,SW,217,0.0,4.0,24,0.00,,,0.00,14.0,meteohub,2013-08-18 01:47:00,
2013-08-17 18:52:00,95.5,53.1,29.90,SW,217,0.0,4.0,24,0.00,,,0.00,11.0,meteohub,2013-08-18 01:52:00,
2013-08-17 18:57:00,95.4,50.5,29.91,SW,217,0.0,2.0,22,0.00,,,0.00,9.0,meteohub,2013-08-18 01:57:00,
2013-08-17 19:02:00,95.2,53.8,29.90,SW,217,1.0,2.0,25,0.00,,,0.00,0.0,meteohub,2013-08-18 02:02:00,
2013-08-17 19:07:00,94.8,53.6,29.90,SW,217,0.0,2.0,25,0.00,,,0.00,0.0,meteohub,2013-08-18 02:07:00,
2013-08-17 19:12:00,94.6,57.4,29.90,SW,217,0.0,2.0,29,0.00,,,0.00,0.0,meteohub,2013-08-18 02:12:00,
2013-08-17 19:17:00,94.3,58.1,29.90,SW,217,0.0,2.0,30,0.00,,,0.00,0.0,meteohub,2013-08-18 02:17:00,
2013-08-17 19:22:00,93.7,61.2,29.91,SW,217,0.0,2.0,34,0.00,,,0.00,0.0,meteohub,2013-08-18 02:22:00,
2013-08-17 19:27:00,93.4,58.3,29.91,SW,217,1.0,2.0,31,0.00,,,0.00,0.0,meteohub,2013-08-18 02:27:00,
2013-08-17 19:32:00,92.8,55.9,29.91,SW,217,1.0,1.0,29,0.00,,,0.00,0.0,meteohub,2013-08-18 02:32:00,
2013-08-17 19:37:00,92.7,51.6,29.91,SW,217,0.0,2.0,25,0.00,,,0.00,0.0,meteohub,2013-08-18 02:37:00,
2013-08-17 19:42:00,92.8,55.9,29.91,SW,217,1.0,2.0,29,0.00,,,0.00,0.0,meteohub,2013-08-18 02:42:00,
2013-08-17 19:47:00,92.7,56.7,29.91,SW,217,0.0,2.0,30,0.00,,,0.00,0.0,meteohub,2013-08-18 02:47:00,
2013-08-17 19:52:00,92.5,57.4,29.91,SW,217,0.0,2.0,31,0.00,,,0.00,0.0,meteohub,2013-08-18 02:52:00,
2013-08-17 19:57:00,92.1,58.1,29.91,SW,217,0.0,1.0,32,0.00,,,0.00,0.0,meteohub,2013-08-18 02:57:00,
2013-08-17 20:02:00,91.8,55.9,29.93,SW,224,5.0,5.0,30,0.00,,,0.00,0.0,meteohub,2013-08-18 03:02:00,
2013-08-17 20:07:00,92.5,52.5,29.93,West,269,5.0,7.0,26,0.00,,,0.00,0.0,meteohub,2013-08-18 03:07:00,
2013-08-17 20:12:00,92.8,52.9,29.93,WNW,303,5.0,10.0,26,0.00,,,0.00,0.0,meteohub,2013-08-18 03:12:00,
2013-08-17 20:17:00,93.0,53.1,29.93,WSW,256,3.0,10.0,26,0.00,,,0.00,0.0,meteohub,2013-08-18 03:17:00,
2013-08-17 20:22:00,93.0,52.0,29.94,NNW,327,5.0,10.0,25,0.00,,,0.00,0.0,meteohub,2013-08-18 03:22:00,
2013-08-17 20:27:00,93.7,52.5,29.94,SW,234,2.0,8.0,25,0.00,,,0.00,0.0,meteohub,2013-08-18 03:27:00,
2013-08-17 20:32:00,93.6,52.5,29.94,SW,229,2.0,6.0,25,0.00,,,0.00,0.0,meteohub,2013-08-18 03:32:00,
2013-08-17 20:37:00,93.0,53.1,29.95,SW,219,5.0,6.0,26,0.00,,,0.00,0.0,meteohub,2013-08-18 03:37:00,
2013-08-17 20:42:00,92.5,53.6,29.96,West,259,7.0,9.0,27,0.00,,,0.00,0.0,meteohub,2013-08-18 03:42:00,
2013-08-17 20:47:00,92.1,53.4,29.96,West,267,4.0,11.0,27,0.00,,,0.00,0.0,meteohub,2013-08-18 03:47:00,
2013-08-17 20:52:00,91.9,52.2,29.96,WNW,296,3.0,11.0,26,0.00,,,0.00,0.0,meteohub,2013-08-18 03:52:00,
2013-08-17 20:57:00,92.5,52.5,29.96,WNW,284,3.0,11.0,26,0.00,,,0.00,0.0,meteohub,2013-08-18 03:57:00,
2013-08-17 21:01:00,92.3,53.4,29.96,West,261,4.0,10.0,27,0.00,,,0.00,0.0,meteohub,2013-08-18 04:01:00,
2013-08-17 21:06:00,91.8,53.1,29.96,WSW,252,2.0,8.0,27,0.00,,,0.00,0.0,meteohub,2013-08-18 04:06:00,
2013-08-17 21:11:00,91.6,52.9,29.96,West,269,2.0,6.0,27,0.00,,,0.00,0.0,meteohub,2013-08-18 04:11:00,
2013-08-17 21:16:00,91.2,53.6,29.96,West,280,2.0,6.0,28,0.00,,,0.00,0.0,meteohub,2013-08-18 04:16:00,
2013-08-17 21:21:00,91.0,53.4,29.96,WNW,284,2.0,5.0,28,0.00,,,0.00,0.0,meteohub,2013-08-18 04:21:00,
2013-08-17 21:26:00,90.9,53.2,29.96,WNW,297,1.0,4.0,28,0.00,,,0.00,0.0,meteohub,2013-08-18 04:26:00,
2013-08-17 21:31:00,90.9,53.2,29.96,WNW,297,0.0,4.0,28,0.00,,,0.00,0.0,meteohub,2013-08-18 04:31:00,
2013-08-17 21:36:00,90.7,54.1,29.96,East,100,2.0,4.0,29,0.00,,,0.00,0.0,meteohub,2013-08-18 04:36:00,
2013-08-17 21:41:00,90.5,54.0,29.97,East,101,3.0,3.0,29,0.00,,,0.00,0.0,meteohub,2013-08-18 04:41:00,
2013-08-17 21:46:00,90.5,54.0,29.97,East,96,2.0,6.0,29,0.00,,,0.00,0.0,meteohub,2013-08-18 04:46:00,
2013-08-17 21:52:00,90.7,53.1,29.98,ESE,121,5.0,8.0,28,0.00,,,0.00,0.0,meteohub,2013-08-18 04:52:00,
2013-08-17 21:57:00,90.9,53.2,29.98,East,87,6.0,8.0,28,0.00,,,0.00,0.0,meteohub,2013-08-18 04:57:00,
2013-08-17 22:02:00,91.0,53.4,29.98,ENE,57,4.0,8.0,28,0.00,,,0.00,0.0,meteohub,2013-08-18 05:02:00,
2013-08-17 22:07:00,91.0,53.4,29.98,ENE,78,5.0,8.0,28,0.00,,,0.00,0.0,meteohub,2013-08-18 05:07:00,
2013-08-17 22:12:00,91.0,53.4,29.98,NE,52,2.0,10.0,28,0.00,,,0.00,0.0,meteohub,2013-08-18 05:12:00,
2013-08-17 22:17:00,91.0,52.3,29.97,NE,52,2.0,10.0,27,0.00,,,0.00,0.0,meteohub,2013-08-18 05:17:00,
2013-08-17 22:22:00,91.0,52.3,29.97,NE,52,0.0,10.0,27,0.00,,,0.00,0.0,meteohub,2013-08-18 05:22:00,
2013-08-17 22:27:00,91.0,54.3,29.97,NE,52,0.0,4.0,29,0.00,,,0.00,0.0,meteohub,2013-08-18 05:27:00,
2013-08-17 22:32:00,90.9,52.3,29.98,NE,50,0.0,3.0,27,0.00,,,0.00,0.0,meteohub,2013-08-18 05:32:00,
2013-08-17 22:37:00,90.7,53.1,29.98,NE,50,2.0,3.0,28,0.00,,,0.00,0.0,meteohub,2013-08-18 05:37:00,
2013-08-17 22:42:00,90.3,52.9,29.99,East,80,3.0,3.0,28,0.00,,,0.00,0.0,meteohub,2013-08-18 05:42:00,
2013-08-17 22:47:00,90.1,53.6,29.99,ENE,74,2.0,7.0,29,0.00,,,0.00,0.0,meteohub,2013-08-18 05:47:00,
2013-08-17 22:52:00,90.0,53.4,29.99,ENE,74,0.0,7.0,29,0.00,,,0.00,0.0,meteohub,2013-08-18 05:52:00,
2013-08-17 22:57:00,89.6,53.1,29.99,ENE,75,0.0,5.0,29,0.00,,,0.00,0.0,meteohub,2013-08-18 05:57:00,
2013-08-17 23:02:00,89.4,53.1,29.99,East,84,1.0,3.0,29,0.00,,,0.00,0.0,meteohub,2013-08-18 06:02:00,
2013-08-17 23:07:00,89.2,54.7,29.99,East,84,0.0,3.0,31,0.00,,,0.00,0.0,meteohub,2013-08-18 06:07:00,
2013-08-17 23:12:00,88.9,54.3,29.99,East,84,1.0,3.0,31,0.00,,,0.00,0.0,meteohub,2013-08-18 06:12:00,
2013-08-17 23:17:00,88.5,55.8,29.99,East,84,0.0,1.0,33,0.00,,,0.00,0.0,meteohub,2013-08-18 06:17:00,
2013-08-17 23:22:00,88.2,55.4,29.99,East,84,0.0,1.0,33,0.00,,,0.00,0.0,meteohub,2013-08-18 06:22:00,
2013-08-17 23:27:00,87.6,55.0,29.99,East,84,0.0,1.0,33,0.00,,,0.00,0.0,meteohub,2013-08-18 06:27:00,
2013-08-17 23:32:00,87.1,57.6,29.99,East,84,0.0,1.0,37,0.00,,,0.00,0.0,meteohub,2013-08-18 06:32:00,
2013-08-17 23:37:00,86.5,57.2,29.99,East,84,1.0,1.0,37,0.00,,,0.00,0.0,meteohub,2013-08-18 06:37:00,
2013-08-17 23:42:00,85.8,57.9,29.99,East,84,0.0,1.0,39,0.00,,,0.00,0.0,meteohub,2013-08-18 06:42:00,
2013-08-17 23:47:00,85.3,56.8,29.99,East,84,0.0,1.0,38,0.00,,,0.00,0.0,meteohub,2013-08-18 06:47:00,
2013-08-17 23:52:00,84.7,57.0,29.99,East,84,0.0,1.0,39,0.00,,,0.00,0.0,meteohub,2013-08-18 06:52:00,
2013-08-17 23:57:00,84.4,56.7,29.99,East,84,1.0,1.0,39,0.00,,,0.00,0.0,meteohub,2013-08-18 06:57:00,